Explorer - northwestern half: Past 24 Hour Conditions

 

South Hecate Strait - 46185

04:00 PM PST 24 November 2014Buoy position: 52.43N 129.79W
This table is a summary of hourly weather conditions for the past 24 hours.
Date / Time
(PST)
Wind(knots) Wave height(m) Wave period(s) Pressure(kPa) Air tempC) Water tempC)
24 November 2014
16:00 NW 8 gust 12 1.8 8.0 101.7 11 12
15:00 NW 8 gust 12 2.0 9.0 101.6 11 12
14:00 NW 10 gust 12 1.9 8.0 101.6 11 12
13:00 NW 14 gust 16 2.1 8.0 101.5 11 12
12:00 WNW 14 gust 16 2.2 8.0 101.4 11 12
11:00 WNW 14 gust 18 2.3 8.0 101.4 11 12
10:00 W 16 gust 19 2.5 8.0 101.3 11 12
9:00 W 18 gust 19 2.5 9.0 101.2 11 12
8:00 W 18 gust 21 2.8 8.0 101.1 11 12
7:00 W 18 gust 21 2.9 8.0 101.0 11 12
6:00 WSW 16 gust 19 3.4 8.0 101.0 12 12
5:00 SSW 19 gust 25 3.2 7.0 100.9 12 12
4:00 SSE 23 gust 35 2.6 7.0 100.9 10 11
3:00 SSE 29 gust 35 2.6 7.0 101.1 10 11
2:00 SSE 31 gust 37 2.3 7.0 101.2 10 11
1:00 N/A N/A N/A N/A N/A N/A
0:00 S 23 gust 33 2.1 12.0 101.5 11 11
23 November 2014
23:00 SSE 23 gust 27 2.1 12.0 101.6 10 11
22:00 S 23 gust 27 2.0 8.0 101.7 11 11
21:00 S 16 gust 19 2.1 10.0 101.7 11 11
20:00 SSW 16 gust 19 2.1 11.0 101.8 11 11
19:00 SSW 14 gust 16 2.2 11.0 101.8 11 11
18:00 SW 12 gust 14 2.4 11.0 101.8 11 11
17:00 SW 14 gust 16 2.4 12.0 101.7 11 11
16:00 WSW 14 gust 16 2.5 11.0 101.7 11 11
 
Map of Pacific - South Coast marine weather areas Tsawwassen Ferry Terminal South Nomad - 46036 Sentry Shoal - 46131 South Brooks - 46132 Halibut Bank - 46146 South Moresby - 46147 South Hecate Strait - 46185 West Sea Otter - 46204 La Perouse Bank - 46206 East Dellwood - 46207 Discovery Island Esquimalt Harbour Kelp Reefs Malahat Race Rocks Lightstation Saturna Island Sheringham Point University of Victoria Victoria Gonzales Victoria Int'l Airport Ballenas Islands Campbell River Airport Comox Airport Entrance Island Fanny Island Nanaimo Airport Port Hardy Airport Sisters Islets Estevan Point Sartine Island Solander Island Tofino Airport Grief Point Powell River Airport Sechelt Cape St.James Bella Bella Airport Bella Coola Airport Cathedral Point Herbert Island Point Atkinson Sand Heads Lightstation Vancouver Harbour Vancouver Int'l Airport West Vancouver Port Alberni Howe Sound - Pam Rocks Squamish Airport